sensor_id;sensor_type;location;lat;lon;timestamp;pressure;altitude;pressure_sealevel;temperature;humidity
62524;BME280;53689;56.878;60.672;2023-03-15T00:01:21;98723.31;;;23.88;22.04
62524;BME280;53689;56.878;60.672;2023-03-15T00:03:48;98723.31;;;23.88;22.79
62524;BME280;53689;56.878;60.672;2023-03-15T00:06:16;98725.19;;;23.87;22.12
62524;BME280;53689;56.878;60.672;2023-03-15T00:08:43;98722.69;;;23.86;23.02
62524;BME280;53689;56.878;60.672;2023-03-15T00:11:10;98729.09;;;23.84;22.87
62524;BME280;53689;56.878;60.672;2023-03-15T00:13:38;98734.31;;;23.86;23.21
62524;BME280;53689;56.878;60.672;2023-03-15T00:16:06;98735.19;;;23.87;22.83
62524;BME280;53689;56.878;60.672;2023-03-15T00:18:34;98734.53;;;23.84;23.25
62524;BME280;53689;56.878;60.672;2023-03-15T00:21:02;98729.34;;;23.83;22.37
62524;BME280;53689;56.878;60.672;2023-03-15T00:23:29;98732.84;;;23.83;22.61
62524;BME280;53689;56.878;60.672;2023-03-15T00:25:56;98739.94;;;23.84;22.76
62524;BME280;53689;56.878;60.672;2023-03-15T00:28:23;98731.41;;;23.81;22.50
62524;BME280;53689;56.878;60.672;2023-03-15T00:31:01;98732.22;;;23.81;22.09
62524;BME280;53689;56.878;60.672;2023-03-15T00:33:28;98736.81;;;23.81;22.71
62524;BME280;53689;56.878;60.672;2023-03-15T00:35:57;98733.47;;;23.79;23.46
62524;BME280;53689;56.878;60.672;2023-03-15T00:38:24;98730.75;;;23.79;22.53
62524;BME280;53689;56.878;60.672;2023-03-15T00:40:51;98734.13;;;23.81;23.06
62524;BME280;53689;56.878;60.672;2023-03-15T00:43:18;98735.97;;;23.80;22.66
62524;BME280;53689;56.878;60.672;2023-03-15T00:45:46;98731.59;;;23.79;22.69
62524;BME280;53689;56.878;60.672;2023-03-15T00:48:13;98742.22;;;23.81;23.52
62524;BME280;53689;56.878;60.672;2023-03-15T00:50:41;98736.16;;;23.79;23.08
62524;BME280;53689;56.878;60.672;2023-03-15T00:53:09;98743.66;;;23.77;22.84
62524;BME280;53689;56.878;60.672;2023-03-15T00:55:37;98745.53;;;23.76;22.90
62524;BME280;53689;56.878;60.672;2023-03-15T00:58:04;98751.34;;;23.80;22.53
62524;BME280;53689;56.878;60.672;2023-03-15T01:00:31;98739.09;;;23.77;22.77
62524;BME280;53689;56.878;60.672;2023-03-15T01:02:59;98740.13;;;23.76;22.41
62524;BME280;53689;56.878;60.672;2023-03-15T01:05:26;98745.53;;;23.76;22.33
62524;BME280;53689;56.878;60.672;2023-03-15T01:07:53;98742.81;;;23.76;22.61
62524;BME280;53689;56.878;60.672;2023-03-15T01:10:23;98746.34;;;23.77;22.50
62524;BME280;53689;56.878;60.672;2023-03-15T01:12:50;98748.44;;;23.75;23.46
62524;BME280;53689;56.878;60.672;2023-03-15T01:15:17;98754.66;;;23.75;23.12
62524;BME280;53689;56.878;60.672;2023-03-15T01:17:44;98751.94;;;23.75;22.92
62524;BME280;53689;56.878;60.672;2023-03-15T01:20:12;98754.66;;;23.75;22.32
62524;BME280;53689;56.878;60.672;2023-03-15T01:22:41;98745.94;;;23.80;22.44
62524;BME280;53689;56.878;60.672;2023-03-15T01:25:08;98740.94;;;23.77;22.70
62524;BME280;53689;56.878;60.672;2023-03-15T01:27:37;98747.81;;;23.79;23.21
62524;BME280;53689;56.878;60.672;2023-03-15T01:30:05;98745.13;;;23.79;22.60
62524;BME280;53689;56.878;60.672;2023-03-15T01:32:33;98740.94;;;23.77;22.38
62524;BME280;53689;56.878;60.672;2023-03-15T01:35:00;98739.91;;;23.78;22.20
62524;BME280;53689;56.878;60.672;2023-03-15T01:37:27;98739.09;;;23.77;22.38
62524;BME280;53689;56.878;60.672;2023-03-15T01:39:55;98743.84;;;23.75;22.39
62524;BME280;53689;56.878;60.672;2023-03-15T01:42:22;98757.16;;;23.77;23.08
62524;BME280;53689;56.878;60.672;2023-03-15T01:44:51;98751.75;;;23.77;22.35
62524;BME280;53689;56.878;60.672;2023-03-15T01:47:19;98749.91;;;23.77;22.60
62524;BME280;53689;56.878;60.672;2023-03-15T01:49:48;98745.94;;;23.80;22.72
62524;BME280;53689;56.878;60.672;2023-03-15T01:52:17;98737.19;;;23.78;23.01
62524;BME280;53689;56.878;60.672;2023-03-15T01:54:57;98734.91;;;23.75;22.51
62524;BME280;53689;56.878;60.672;2023-03-15T01:57:26;98730.97;;;23.77;22.40
62524;BME280;53689;56.878;60.672;2023-03-15T01:59:59;98725.75;;;23.76;22.40
62524;BME280;53689;56.878;60.672;2023-03-15T02:02:39;98719.91;;;23.72;22.27
62524;BME280;53689;56.878;60.672;2023-03-15T02:05:08;98704.75;;;23.78;23.22
62524;BME280;53689;56.878;60.672;2023-03-15T02:07:38;98698.53;;;23.77;23.15
62524;BME280;53689;56.878;60.672;2023-03-15T02:10:08;98698.53;;;23.77;22.38
62524;BME280;53689;56.878;60.672;2023-03-15T02:12:39;98680.44;;;23.78;22.92
62524;BME280;53689;56.878;60.672;2023-03-15T02:15:09;98686.06;;;23.76;22.82
62524;BME280;53689;56.878;60.672;2023-03-15T02:17:38;98688.75;;;23.76;22.97
62524;BME280;53689;56.878;60.672;2023-03-15T02:20:10;98684.34;;;23.75;22.93
62524;BME280;53689;56.878;60.672;2023-03-15T02:22:42;98679.59;;;23.77;22.50
62524;BME280;53689;56.878;60.672;2023-03-15T02:25:14;98682.50;;;23.76;22.98
62524;BME280;53689;56.878;60.672;2023-03-15T02:27:48;98673.97;;;23.79;22.73
62524;BME280;53689;56.878;60.672;2023-03-15T02:30:16;98675.25;;;23.76;23.15
62524;BME280;53689;56.878;60.672;2023-03-15T02:32:43;98669.63;;;23.78;21.66
62524;BME280;53689;56.878;60.672;2023-03-15T02:35:11;98665.25;;;23.77;22.34
62524;BME280;53689;56.878;60.672;2023-03-15T02:37:38;98654.00;;;23.73;22.78
62524;BME280;53689;56.878;60.672;2023-03-15T02:40:10;98650.66;;;23.71;23.28
62524;BME280;53689;56.878;60.672;2023-03-15T02:42:42;98647.78;;;23.73;23.38
62524;BME280;53689;56.878;60.672;2023-03-15T02:45:11;98640.91;;;23.70;22.48
62524;BME280;53689;56.878;60.672;2023-03-15T02:47:39;98642.38;;;23.73;22.79
62524;BME280;53689;56.878;60.672;2023-03-15T02:50:07;98637.78;;;23.73;22.52
62524;BME280;53689;56.878;60.672;2023-03-15T02:52:34;98646.31;;;23.70;22.81
62524;BME280;53689;56.878;60.672;2023-03-15T02:55:01;98640.06;;;23.69;22.59
62524;BME280;53689;56.878;60.672;2023-03-15T02:57:28;98634.03;;;23.67;23.11
62524;BME280;53689;56.878;60.672;2023-03-15T02:59:56;98639.84;;;23.71;23.16
62524;BME280;53689;56.878;60.672;2023-03-15T03:02:25;98629.03;;;23.71;23.16
62524;BME280;53689;56.878;60.672;2023-03-15T03:04:52;98633.59;;;23.70;21.68
62524;BME280;53689;56.878;60.672;2023-03-15T03:07:20;98640.28;;;23.75;23.14
62524;BME280;53689;56.878;60.672;2023-03-15T03:09:52;98635.69;;;23.68;23.06
62524;BME280;53689;56.878;60.672;2023-03-15T03:12:20;98631.75;;;23.71;22.94
62524;BME280;53689;56.878;60.672;2023-03-15T03:14:48;98627.19;;;23.72;22.42
62524;BME280;53689;56.878;60.672;2023-03-15T03:17:19;98631.75;;;23.71;23.05
62524;BME280;53689;56.878;60.672;2023-03-15T03:19:48;98634.88;;;23.75;22.25
62524;BME280;53689;56.878;60.672;2023-03-15T03:22:20;98633.66;;;23.77;23.03
62524;BME280;53689;56.878;60.672;2023-03-15T03:24:47;98634.88;;;23.75;21.97
62524;BME280;53689;56.878;60.672;2023-03-15T03:27:15;98631.75;;;23.78;22.48
62524;BME280;53689;56.878;60.672;2023-03-15T03:29:44;98632.78;;;23.70;22.18
62524;BME280;53689;56.878;60.672;2023-03-15T03:32:12;98639.25;;;23.76;22.53
62524;BME280;53689;56.878;60.672;2023-03-15T03:34:40;98640.09;;;23.76;22.85
62524;BME280;53689;56.878;60.672;2023-03-15T03:37:09;98646.94;;;23.72;23.13
62524;BME280;53689;56.878;60.672;2023-03-15T03:39:54;98651.72;;;23.70;22.16
62524;BME280;53689;56.878;60.672;2023-03-15T03:42:26;98643.63;;;23.77;23.39
62524;BME280;53689;56.878;60.672;2023-03-15T03:44:54;98648.22;;;23.76;22.79
62524;BME280;53689;56.878;60.672;2023-03-15T03:47:29;98652.34;;;23.79;22.09
62524;BME280;53689;56.878;60.672;2023-03-15T03:49:56;98651.91;;;23.75;23.05
62524;BME280;53689;56.878;60.672;2023-03-15T03:52:25;98656.09;;;23.78;22.79
62524;BME280;53689;56.878;60.672;2023-03-15T03:55:00;98661.50;;;23.78;23.01
62524;BME280;53689;56.878;60.672;2023-03-15T03:57:27;98652.56;;;23.77;21.75
62524;BME280;53689;56.878;60.672;2023-03-15T03:59:54;98650.91;;;23.76;22.66
62524;BME280;53689;56.878;60.672;2023-03-15T04:02:22;98648.84;;;23.78;22.37
62524;BME280;53689;56.878;60.672;2023-03-15T04:05:02;98651.97;;;23.82;22.45
62524;BME280;53689;56.878;60.672;2023-03-15T04:07:32;98651.97;;;23.82;22.45
62524;BME280;53689;56.878;60.672;2023-03-15T04:09:59;98654.00;;;23.80;21.70
62524;BME280;53689;56.878;60.672;2023-03-15T04:12:26;98646.13;;;23.78;22.56
62524;BME280;53689;56.878;60.672;2023-03-15T04:14:55;98649.66;;;23.79;22.46
62524;BME280;53689;56.878;60.672;2023-03-15T04:17:25;98650.91;;;23.76;21.85
62524;BME280;53689;56.878;60.672;2023-03-15T04:19:53;98651.09;;;23.75;22.84
62524;BME280;53689;56.878;60.672;2023-03-15T04:22:25;98647.34;;;23.76;22.48
62524;BME280;53689;56.878;60.672;2023-03-15T04:25:28;98657.13;;;23.77;22.95
62524;BME280;53689;56.878;60.672;2023-03-15T04:28:14;98647.53;;;23.67;23.11
62524;BME280;53689;56.878;60.672;2023-03-15T04:30:41;98649.00;;;23.70;22.99
62524;BME280;53689;56.878;60.672;2023-03-15T04:33:27;98641.69;;;23.57;21.84
62524;BME280;53689;56.878;60.672;2023-03-15T04:36:33;98631.72;;;23.64;21.60
62524;BME280;53689;56.878;60.672;2023-03-15T04:39:19;98628.97;;;23.51;22.59
62524;BME280;53689;56.878;60.672;2023-03-15T04:41:57;98639.41;;;23.61;21.01
62524;BME280;53689;56.878;60.672;2023-03-15T04:44:43;98636.91;;;23.59;20.25
62524;BME280;53689;56.878;60.672;2023-03-15T04:47:21;98634.19;;;23.52;21.87
62524;BME280;53689;56.878;60.672;2023-03-15T04:50:09;98635.84;;;23.53;22.50
62524;BME280;53689;56.878;60.672;2023-03-15T04:53:08;98642.25;;;23.46;21.07
62524;BME280;53689;56.878;60.672;2023-03-15T04:56:09;98637.34;;;23.63;21.47
62524;BME280;53689;56.878;60.672;2023-03-15T04:58:47;98648.59;;;23.73;20.78
62524;BME280;53689;56.878;60.672;2023-03-15T05:01:53;98637.41;;;23.76;20.80
62524;BME280;53689;56.878;60.672;2023-03-15T05:04:33;98628.00;;;23.72;20.93
62524;BME280;53689;56.878;60.672;2023-03-15T05:07:18;98631.09;;;23.62;20.37
62524;BME280;53689;56.878;60.672;2023-03-15T05:09:52;98634.66;;;23.69;20.72
62524;BME280;53689;56.878;60.672;2023-03-15T05:12:49;98628.16;;;23.57;20.93
62524;BME280;53689;56.878;60.672;2023-03-15T05:15:37;98631.31;;;23.67;20.25
62524;BME280;53689;56.878;60.672;2023-03-15T05:18:23;98637.78;;;23.73;20.95
62524;BME280;53689;56.878;60.672;2023-03-15T05:21:08;98636.75;;;23.74;21.15
62524;BME280;53689;56.878;60.672;2023-03-15T05:23:59;98638.94;;;23.44;22.15
62524;BME280;53689;56.878;60.672;2023-03-15T05:26:32;98625.28;;;23.59;20.68
62524;BME280;53689;56.878;60.672;2023-03-15T05:29:11;98633.16;;;23.60;21.68
62524;BME280;53689;56.878;60.672;2023-03-15T05:32:06;98636.50;;;23.62;21.12
62524;BME280;53689;56.878;60.672;2023-03-15T05:34:48;98628.19;;;23.70;19.53
62524;BME280;53689;56.878;60.672;2023-03-15T05:37:33;98633.22;;;23.74;22.25
62524;BME280;53689;56.878;60.672;2023-03-15T05:40:16;98631.50;;;23.59;21.52
62524;BME280;53689;56.878;60.672;2023-03-15T05:43:02;98630.28;;;23.68;20.35
62524;BME280;53689;56.878;60.672;2023-03-15T05:45:51;98629.38;;;23.48;22.03
62524;BME280;53689;56.878;60.672;2023-03-15T05:48:38;98632.78;;;23.70;20.56
62524;BME280;53689;56.878;60.672;2023-03-15T05:51:32;98621.75;;;23.65;21.63
62524;BME280;53689;56.878;60.672;2023-03-15T05:54:16;98626.78;;;23.75;20.94
62524;BME280;53689;56.878;60.672;2023-03-15T05:57:02;98613.69;;;23.72;20.59
62524;BME280;53689;56.878;60.672;2023-03-15T05:59:48;98613.16;;;23.48;22.36
62524;BME280;53689;56.878;60.672;2023-03-15T06:02:48;98613.03;;;23.69;22.08
62524;BME280;53689;56.878;60.672;2023-03-15T06:05:38;98611.97;;;23.70;22.77
62524;BME280;53689;56.878;60.672;2023-03-15T06:08:11;98610.56;;;23.81;21.21
62524;BME280;53689;56.878;60.672;2023-03-15T06:10:42;98603.50;;;23.80;21.18
62524;BME280;53689;56.878;60.672;2023-03-15T06:13:10;98604.47;;;23.66;21.66
62524;BME280;53689;56.878;60.672;2023-03-15T06:15:39;98603.66;;;23.65;21.96
62524;BME280;53689;56.878;60.672;2023-03-15T06:18:08;98603.25;;;23.68;21.53
62524;BME280;53689;56.878;60.672;2023-03-15T06:20:36;98604.91;;;23.69;22.20
62524;BME280;53689;56.878;60.672;2023-03-15T06:23:10;98598.94;;;23.81;21.59
62524;BME280;53689;56.878;60.672;2023-03-15T06:25:43;98600.97;;;23.79;21.58
62524;BME280;53689;56.878;60.672;2023-03-15T06:28:10;98599.91;;;23.66;22.95
62524;BME280;53689;56.878;60.672;2023-03-15T06:30:43;98608.25;;;23.72;22.45
62524;BME280;53689;56.878;60.672;2023-03-15T06:33:11;98618.41;;;23.63;22.32
62524;BME280;53689;56.878;60.672;2023-03-15T06:35:38;98618.22;;;23.64;21.63
62524;BME280;53689;56.878;60.672;2023-03-15T06:38:06;98623.63;;;23.71;22.04
62524;BME280;53689;56.878;60.672;2023-03-15T06:40:38;98626.97;;;23.80;22.75
62524;BME280;53689;56.878;60.672;2023-03-15T06:43:05;98620.66;;;23.52;22.79
62524;BME280;53689;56.878;60.672;2023-03-15T06:45:34;98620.75;;;23.73;22.18
62524;BME280;53689;56.878;60.672;2023-03-15T06:48:03;98610.31;;;23.69;22.15
62524;BME280;53689;56.878;60.672;2023-03-15T06:50:30;98613.25;;;23.75;22.77
62524;BME280;53689;56.878;60.672;2023-03-15T06:53:12;98611.97;;;23.70;23.55
62524;BME280;53689;56.878;60.672;2023-03-15T06:55:41;98610.97;;;23.78;21.84
62524;BME280;53689;56.878;60.672;2023-03-15T06:58:09;98610.72;;;23.66;21.15
62524;BME280;53689;56.878;60.672;2023-03-15T07:00:36;98606.19;;;23.80;22.56
62524;BME280;53689;56.878;60.672;2023-03-15T07:03:03;98608.22;;;23.65;22.81
62524;BME280;53689;56.878;60.672;2023-03-15T07:05:31;98604.91;;;23.69;21.35
62524;BME280;53689;56.878;60.672;2023-03-15T07:07:58;98613.44;;;23.73;22.05
62524;BME280;53689;56.878;60.672;2023-03-15T07:10:26;98614.06;;;23.75;21.87
62524;BME280;53689;56.878;60.672;2023-03-15T07:12:54;98614.06;;;23.75;21.34
62524;BME280;53689;56.878;60.672;2023-03-15T07:15:22;98607.66;;;23.83;20.74
62524;BME280;53689;56.878;60.672;2023-03-15T07:17:49;98606.44;;;23.86;21.40
62524;BME280;53689;56.878;60.672;2023-03-15T07:20:17;98607.25;;;23.86;21.79
62524;BME280;53689;56.878;60.672;2023-03-15T07:22:44;98594.56;;;23.87;21.73
62524;BME280;53689;56.878;60.672;2023-03-15T07:25:11;98600.66;;;23.40;22.51
62524;BME280;53689;56.878;60.672;2023-03-15T07:27:38;98592.03;;;23.72;22.18
62524;BME280;53689;56.878;60.672;2023-03-15T07:30:08;98590.22;;;23.86;21.18
62524;BME280;53689;56.878;60.672;2023-03-15T07:32:35;98590.59;;;23.82;22.08
62524;BME280;53689;56.878;60.672;2023-03-15T07:35:03;98582.72;;;23.81;21.76
62524;BME280;53689;56.878;60.672;2023-03-15T07:37:30;98591.63;;;23.81;22.28
62524;BME280;53689;56.878;60.672;2023-03-15T07:39:57;98592.88;;;23.72;22.80
62524;BME280;53689;56.878;60.672;2023-03-15T07:42:25;98584.56;;;23.67;22.06
62524;BME280;53689;56.878;60.672;2023-03-15T07:44:56;98585.59;;;23.73;22.32
62524;BME280;53689;56.878;60.672;2023-03-15T07:47:25;98582.91;;;23.79;21.83
62524;BME280;53689;56.878;60.672;2023-03-15T07:49:53;98574.59;;;23.81;22.01
62524;BME280;53689;56.878;60.672;2023-03-15T07:52:20;98581.06;;;23.87;21.21
62524;BME280;53689;56.878;60.672;2023-03-15T07:54:47;98570.81;;;23.62;22.74
62524;BME280;53689;56.878;60.672;2023-03-15T07:57:14;98568.09;;;23.55;22.37
62524;BME280;53689;56.878;60.672;2023-03-15T07:59:42;98576.03;;;23.70;21.52
62524;BME280;53689;56.878;60.672;2023-03-15T08:02:09;98572.44;;;23.56;21.71
62524;BME280;53689;56.878;60.672;2023-03-15T08:04:39;98570.00;;;23.75;21.97
62524;BME280;53689;56.878;60.672;2023-03-15T08:07:06;98572.72;;;23.75;22.39
62524;BME280;53689;56.878;60.672;2023-03-15T08:09:34;98567.09;;;23.76;22.39
62524;BME280;53689;56.878;60.672;2023-03-15T08:12:02;98571.25;;;23.72;21.72
62524;BME280;53689;56.878;60.672;2023-03-15T08:14:29;98572.09;;;23.73;22.79
62524;BME280;53689;56.878;60.672;2023-03-15T08:16:56;98583.28;;;23.69;22.20
62524;BME280;53689;56.878;60.672;2023-03-15T08:19:24;98570.59;;;23.63;21.23
62524;BME280;53689;56.878;60.672;2023-03-15T08:21:52;98576.22;;;23.75;22.53
62524;BME280;53689;56.878;60.672;2023-03-15T08:24:20;98580.41;;;23.78;22.83
62524;BME280;53689;56.878;60.672;2023-03-15T08:26:47;98574.75;;;23.66;21.59
62524;BME280;53689;56.878;60.672;2023-03-15T08:29:14;98579.16;;;23.67;22.38
62524;BME280;53689;56.878;60.672;2023-03-15T08:31:41;98568.94;;;23.62;22.90
62524;BME280;53689;56.878;60.672;2023-03-15T08:34:09;98569.16;;;23.67;23.01
62524;BME280;53689;56.878;60.672;2023-03-15T08:36:36;98573.31;;;23.70;23.41
62524;BME280;53689;56.878;60.672;2023-03-15T08:39:05;98577.69;;;23.71;22.45
62524;BME280;53689;56.878;60.672;2023-03-15T08:41:32;98580.41;;;23.78;22.00
62524;BME280;53689;56.878;60.672;2023-03-15T08:43:59;98581.88;;;23.80;22.25
62524;BME280;53689;56.878;60.672;2023-03-15T08:46:27;98578.53;;;23.78;21.89
62524;BME280;53689;56.878;60.672;2023-03-15T08:48:54;98573.13;;;23.78;22.38
62524;BME280;53689;56.878;60.672;2023-03-15T08:51:21;98579.16;;;23.74;21.59
62524;BME280;53689;56.878;60.672;2023-03-15T08:53:48;98576.22;;;23.68;21.52
62524;BME280;53689;56.878;60.672;2023-03-15T08:56:17;98576.66;;;23.79;22.43
62524;BME280;53689;56.878;60.672;2023-03-15T08:58:44;98571.25;;;23.72;21.47
62524;BME280;53689;56.878;60.672;2023-03-15T09:01:12;98578.91;;;23.68;22.25
62524;BME280;53689;56.878;60.672;2023-03-15T09:03:39;98578.28;;;23.60;21.23
62524;BME280;53689;56.878;60.672;2023-03-15T09:06:07;98581.59;;;23.62;22.52
62524;BME280;53689;56.878;60.672;2023-03-15T09:08:35;98582.03;;;23.65;21.44
62524;BME280;53689;56.878;60.672;2023-03-15T09:11:02;98582.47;;;23.62;21.88
62524;BME280;53689;56.878;60.672;2023-03-15T09:13:31;98583.94;;;23.72;21.14
62524;BME280;53689;56.878;60.672;2023-03-15T09:15:58;98587.88;;;23.76;21.09
62524;BME280;53689;56.878;60.672;2023-03-15T09:18:26;98579.59;;;23.91;22.67
62524;BME280;53689;56.878;60.672;2023-03-15T09:20:53;98581.88;;;23.87;23.85
62524;BME280;53689;56.878;60.672;2023-03-15T09:23:23;98591.84;;;23.80;22.51
62524;BME280;53689;56.878;60.672;2023-03-15T09:25:50;98596.22;;;23.81;22.17
62524;BME280;53689;56.878;60.672;2023-03-15T09:28:18;98590.59;;;23.82;22.75
62524;BME280;53689;56.878;60.672;2023-03-15T09:30:47;98587.50;;;23.86;22.24
62524;BME280;53689;56.878;60.672;2023-03-15T09:33:15;98589.97;;;23.80;22.06
62524;BME280;53689;56.878;60.672;2023-03-15T09:35:43;98596.63;;;23.84;22.96
62524;BME280;53689;56.878;60.672;2023-03-15T09:38:10;98592.25;;;23.83;22.32
62524;BME280;53689;56.878;60.672;2023-03-15T09:40:38;98588.31;;;23.79;22.21
62524;BME280;53689;56.878;60.672;2023-03-15T09:43:11;98582.91;;;23.73;23.00
62524;BME280;53689;56.878;60.672;2023-03-15T09:45:45;98581.66;;;23.82;21.94
62524;BME280;53689;56.878;60.672;2023-03-15T09:48:17;98581.06;;;23.93;22.40
62524;BME280;53689;56.878;60.672;2023-03-15T09:50:46;98589.56;;;23.83;22.57
62524;BME280;53689;56.878;60.672;2023-03-15T09:53:15;98583.97;;;23.85;22.26
62524;BME280;53689;56.878;60.672;2023-03-15T09:55:44;98582.72;;;23.94;21.98
62524;BME280;53689;56.878;60.672;2023-03-15T09:58:15;98577.94;;;24.03;20.63
62524;BME280;53689;56.878;60.672;2023-03-15T10:00:44;98581.50;;;24.04;21.88
62524;BME280;53689;56.878;60.672;2023-03-15T10:03:17;98585.44;;;24.01;21.81
62524;BME280;53689;56.878;60.672;2023-03-15T10:05:48;98587.09;;;24.02;22.08
62524;BME280;53689;56.878;60.672;2023-03-15T10:08:18;98583.56;;;24.02;21.40
62524;BME280;53689;56.878;60.672;2023-03-15T10:10:48;98592.72;;;24.01;21.76
62524;BME280;53689;56.878;60.672;2023-03-15T10:13:28;98590.88;;;24.08;21.33
62524;BME280;53689;56.878;60.672;2023-03-15T10:16:00;98592.06;;;23.98;22.51
62524;BME280;53689;56.878;60.672;2023-03-15T10:18:36;98598.94;;;23.88;22.58
62524;BME280;53689;56.878;60.672;2023-03-15T10:21:09;98591.88;;;23.93;22.25
62524;BME280;53689;56.878;60.672;2023-03-15T10:23:40;98588.75;;;23.90;21.86
62524;BME280;53689;56.878;60.672;2023-03-15T10:26:10;98599.81;;;24.02;22.17
62524;BME280;53689;56.878;60.672;2023-03-15T10:28:40;98596.69;;;24.05;21.24
62524;BME280;53689;56.878;60.672;2023-03-15T10:31:10;98603.50;;;23.94;22.11
62524;BME280;53689;56.878;60.672;2023-03-15T10:33:53;98605.03;;;24.10;21.80
62524;BME280;53689;56.878;60.672;2023-03-15T10:36:21;98605.44;;;24.07;21.80
62524;BME280;53689;56.878;60.672;2023-03-15T10:38:49;98605.25;;;24.08;21.89
62524;BME280;53689;56.878;60.672;2023-03-15T10:41:26;98617.91;;;24.08;21.70
62524;BME280;53689;56.878;60.672;2023-03-15T10:43:56;98614.16;;;24.09;21.62
62524;BME280;53689;56.878;60.672;2023-03-15T10:46:25;98610.03;;;24.06;21.43
62524;BME280;53689;56.878;60.672;2023-03-15T10:48:55;98618.16;;;24.13;21.66
62524;BME280;53689;56.878;60.672;2023-03-15T10:51:25;98621.03;;;24.05;21.61
62524;BME280;53689;56.878;60.672;2023-03-15T10:53:54;98616.66;;;24.04;21.88
62524;BME280;53689;56.878;60.672;2023-03-15T10:56:22;98623.91;;;23.96;21.88
62524;BME280;53689;56.878;60.672;2023-03-15T10:58:51;98627.88;;;24.01;22.33
62524;BME280;53689;56.878;60.672;2023-03-15T11:01:37;98624.31;;;23.93;22.25
62524;BME280;53689;56.878;60.672;2023-03-15T11:04:16;98622.44;;;23.94;22.20
62524;BME280;53689;56.878;60.672;2023-03-15T11:06:46;98625.56;;;23.91;21.74
62524;BME280;53689;56.878;60.672;2023-03-15T11:09:14;98626.41;;;23.91;22.67
62524;BME280;53689;56.878;60.672;2023-03-15T11:11:52;98629.50;;;23.95;22.31
62524;BME280;53689;56.878;60.672;2023-03-15T11:14:20;98629.94;;;23.92;22.43
62524;BME280;53689;56.878;60.672;2023-03-15T11:16:48;98626.19;;;23.93;22.12
62524;BME280;53689;56.878;60.672;2023-03-15T11:19:18;98624.31;;;23.93;22.25
62524;BME280;53689;56.878;60.672;2023-03-15T11:21:46;98630.34;;;23.95;21.99
62524;BME280;53689;56.878;60.672;2023-03-15T11:24:18;98627.03;;;23.93;22.71
62524;BME280;53689;56.878;60.672;2023-03-15T11:26:47;98628.69;;;23.94;22.35
62524;BME280;53689;56.878;60.672;2023-03-15T11:29:15;98626.81;;;23.95;22.50
62524;BME280;53689;56.878;60.672;2023-03-15T11:31:45;98633.97;;;23.54;23.52
62524;BME280;53689;56.878;60.672;2023-03-15T11:34:14;98636.53;;;23.76;22.46
62524;BME280;53689;56.878;60.672;2023-03-15T11:36:49;98636.19;;;23.86;22.51
62524;BME280;53689;56.878;60.672;2023-03-15T11:39:34;98626.19;;;23.86;22.68
62524;BME280;53689;56.878;60.672;2023-03-15T11:42:04;98631.81;;;23.91;22.71
62524;BME280;53689;56.878;60.672;2023-03-15T11:44:37;98637.63;;;23.95;22.71
62524;BME280;53689;56.878;60.672;2023-03-15T11:47:08;98630.16;;;23.97;22.39
62524;BME280;53689;56.878;60.672;2023-03-15T11:49:39;98630.97;;;23.97;22.63
62524;BME280;53689;56.878;60.672;2023-03-15T11:52:10;98636.38;;;23.97;22.30
62524;BME280;53689;56.878;60.672;2023-03-15T11:54:37;98630.97;;;23.97;22.70
62524;BME280;53689;56.878;60.672;2023-03-15T11:57:05;98632.63;;;23.98;22.70
62524;BME280;53689;56.878;60.672;2023-03-15T11:59:33;98637.00;;;24.00;22.58
62524;BME280;53689;56.878;60.672;2023-03-15T12:02:05;98636.19;;;23.99;22.14
62524;BME280;53689;56.878;60.672;2023-03-15T12:04:53;98638.06;;;23.98;22.01
62524;BME280;53689;56.878;60.672;2023-03-15T12:07:28;98638.91;;;23.99;22.72
62524;BME280;53689;56.878;60.672;2023-03-15T12:09:56;98642.84;;;23.96;22.93
62524;BME280;53689;56.878;60.672;2023-03-15T12:12:42;98632.44;;;24.00;22.51
62524;BME280;53689;56.878;60.672;2023-03-15T12:17:58;98641.41;;;24.01;22.31
62524;BME280;53689;56.878;60.672;2023-03-15T12:20:31;98644.31;;;23.99;22.84
62524;BME280;53689;56.878;60.672;2023-03-15T12:23:06;98641.59;;;23.99;22.25
62524;BME280;53689;56.878;60.672;2023-03-15T12:25:42;98642.41;;;24.00;22.78
62524;BME280;53689;56.878;60.672;2023-03-15T12:28:21;98641.41;;;24.01;23.24
62524;BME280;53689;56.878;60.672;2023-03-15T12:30:51;98645.13;;;24.00;22.20
62524;BME280;53689;56.878;60.672;2023-03-15T12:33:20;98641.41;;;24.01;22.31
62524;BME280;53689;56.878;60.672;2023-03-15T12:35:49;98639.53;;;24.01;23.03
62524;BME280;53689;56.878;60.672;2023-03-15T12:38:17;98646.81;;;24.01;22.96
62524;BME280;53689;56.878;60.672;2023-03-15T12:40:50;98643.06;;;24.02;22.98
62524;BME280;53689;56.878;60.672;2023-03-15T12:46:00;98640.38;;;24.02;23.19
62524;BME280;53689;56.878;60.672;2023-03-15T12:48:27;98640.56;;;24.00;22.51
62524;BME280;53689;56.878;60.672;2023-03-15T12:50:59;98633.50;;;23.99;22.35
62524;BME280;53689;56.878;60.672;2023-03-15T12:53:34;98638.69;;;24.01;23.27
62524;BME280;53689;56.878;60.672;2023-03-15T12:58:44;98642.03;;;24.03;22.59
62524;BME280;53689;56.878;60.672;2023-03-15T13:01:13;98645.38;;;24.05;22.71
62524;BME280;53689;56.878;60.672;2023-03-15T13:03:42;98642.69;;;24.05;22.99
62524;BME280;53689;56.878;60.672;2023-03-15T13:06:12;98637.28;;;24.05;22.47
62524;BME280;53689;56.878;60.672;2023-03-15T13:08:45;98638.13;;;24.05;23.07
62524;BME280;53689;56.878;60.672;2023-03-15T13:11:16;98641.63;;;24.06;22.99
62524;BME280;53689;56.878;60.672;2023-03-15T13:13:54;98639.38;;;24.09;22.51
62524;BME280;53689;56.878;60.672;2023-03-15T13:16:28;98646.63;;;24.09;22.21
62524;BME280;53689;56.878;60.672;2023-03-15T13:19:01;98638.13;;;24.12;21.97
62524;BME280;53689;56.878;60.672;2023-03-15T13:21:34;98639.97;;;24.11;22.48